Time;durP1;ratioP1;P1;durP2;ratioP2;P2;SDS_P1;SDS_P2;PMS_P1;PMS_P2;Temp;Humidity;BMP_temperature;BMP_pressure;BME280_temperature;BME280_humidity;BME280_pressure;Samples;Min_cycle;Max_cycle;Signal;HPM_P1;HPM_P2
2022/08/05 00:00:07;;;;;;;1.25;1.00;;;;;;;25.73;35.18;98684.41;5041717;28;20064;-60
2022/08/05 00:03:04;;;;;;;3.45;1.42;;;;;;;25.69;35.03;98676.78;5031671;28;20559;-59
2022/08/05 00:05:49;;;;;;;3.03;1.30;;;;;;;25.61;35.08;98679.66;5031530;28;20095;-61
2022/08/05 00:08:35;;;;;;;1.88;1.23;;;;;;;25.61;34.95;98676.97;5031713;28;20504;-60
2022/08/05 00:11:20;;;;;;;3.05;1.40;;;;;;;25.62;35.47;98681.34;5033529;28;20061;-60
2022/08/05 00:14:04;;;;;;;3.95;1.38;;;;;;;25.63;35.34;98674.09;5031286;28;20108;-60
2022/08/05 00:16:49;;;;;;;2.15;1.40;;;;;;;25.64;35.30;98668.53;5030090;28;20061;-61
2022/08/05 00:19:34;;;;;;;2.25;1.70;;;;;;;25.57;35.31;98665.84;5031550;28;20480;-61
2022/08/05 00:22:19;;;;;;;2.33;1.50;;;;;;;25.50;35.75;98680.25;5016668;28;20037;-59
2022/08/05 00:25:04;;;;;;;2.35;1.45;;;;;;;25.53;35.60;98680.69;5032960;28;20125;-58
2022/08/05 00:27:49;;;;;;;1.52;1.00;;;;;;;25.56;36.37;98672.22;5039298;28;20060;-60
2022/08/05 00:30:34;;;;;;;1.92;1.25;;;;;;;25.52;36.09;98672.84;5034996;28;20029;-59
2022/08/05 00:33:19;;;;;;;1.75;1.25;;;;;;;25.43;36.42;98670.38;5034761;28;20044;-58
2022/08/05 00:36:06;;;;;;;1.80;1.20;;;;;;;25.40;36.53;98676.13;5042121;28;20056;-60
2022/08/05 00:38:51;;;;;;;1.67;1.40;;;;;;;25.29;36.24;98663.34;5043156;28;20115;-60
2022/08/05 00:41:35;;;;;;;1.77;0.98;;;;;;;25.28;37.08;98661.69;5046116;28;20048;-60
2022/08/05 00:44:22;;;;;;;2.95;1.40;;;;;;;25.24;37.27;98655.06;5045785;28;20053;-60
2022/08/05 00:47:07;;;;;;;1.80;1.27;;;;;;;25.26;37.02;98658.38;5039096;28;20044;-61
2022/08/05 00:49:51;;;;;;;2.00;1.65;;;;;;;25.19;37.00;98658.38;5050701;28;20198;-59
2022/08/05 00:52:36;;;;;;;2.00;1.15;;;;;;;25.17;37.38;98655.06;5040739;28;20384;-59
2022/08/05 00:55:22;;;;;;;2.30;1.70;;;;;;;25.12;37.44;98646.84;5034730;28;20064;-60
2022/08/05 00:58:06;;;;;;;1.75;1.60;;;;;;;25.12;37.63;98646.84;5037288;28;20041;-59
2022/08/05 01:00:51;;;;;;;1.83;1.38;;;;;;;25.05;37.55;98641.47;5046167;28;20037;-59
2022/08/05 01:03:37;;;;;;;1.80;1.40;;;;;;;24.95;37.45;98642.69;5040302;28;20037;-58
2022/08/05 01:06:22;;;;;;;3.55;1.73;;;;;;;24.88;37.60;98641.78;5038408;28;20378;-59
2022/08/05 01:09:07;;;;;;;2.40;1.50;;;;;;;24.87;38.05;98645.50;5040531;28;20045;-59
2022/08/05 01:11:54;;;;;;;2.10;1.52;;;;;;;24.81;38.42;98636.41;5040461;28;20042;-59
2022/08/05 01:14:54;;;;;;;2.20;1.35;;;;;;;24.82;38.00;98638.09;5054455;28;20064;-59
2022/08/05 01:17:45;;;;;;;2.17;1.60;;;;;;;24.73;38.07;98632.06;5040322;28;20041;-60
2022/08/05 01:20:59;;;;;;;2.15;1.40;;;;;;;24.72;37.96;98634.97;5043628;28;20038;-60
2022/08/05 01:24:08;;;;;;;2.03;1.45;;;;;;;24.60;37.86;98622.16;5035400;28;20479;-59
2022/08/05 01:27:10;;;;;;;2.10;1.63;;;;;;;24.56;37.99;98622.75;5036553;28;20041;-59
2022/08/05 01:29:59;;;;;;;2.53;1.58;;;;;;;24.50;38.58;98615.53;5044339;28;20057;-59
2022/08/05 01:32:48;;;;;;;1.90;1.45;;;;;;;24.43;38.74;98624.34;5039988;28;20404;-59
2022/08/05 01:35:38;;;;;;;2.15;1.52;;;;;;;24.39;39.17;98625.78;5047885;28;20038;-58
2022/08/05 01:38:24;;;;;;;2.53;1.50;;;;;;;24.33;39.16;98622.06;5038132;28;20037;-59
2022/08/05 01:41:13;;;;;;;1.88;1.50;;;;;;;24.24;39.62;98621.38;5039173;28;20045;-59
2022/08/05 01:44:00;;;;;;;2.50;1.95;;;;;;;24.26;39.97;98615.00;5042868;28;20045;-59
2022/08/05 01:46:47;;;;;;;2.85;1.67;;;;;;;24.19;40.41;98620.31;5041761;28;20037;-59
2022/08/05 01:49:33;;;;;;;2.17;1.40;;;;;;;24.14;40.75;98612.84;5048964;28;20120;-59
2022/08/05 01:52:21;;;;;;;2.25;1.75;;;;;;;24.09;41.37;98618.78;5049743;28;20087;-60
2022/08/05 01:55:08;;;;;;;3.60;1.60;;;;;;;24.11;41.49;98621.28;5033699;28;20469;-59
2022/08/05 01:57:56;;;;;;;4.10;1.52;;;;;;;24.06;41.81;98618.34;5037793;28;20060;-59
2022/08/05 02:00:44;;;;;;;1.98;1.52;;;;;;;23.98;42.30;98620.19;5036031;28;20033;-59
2022/08/05 02:03:37;;;;;;;3.83;1.77;;;;;;;24.01;42.30;98620.81;5036872;28;20542;-60
2022/08/05 02:06:22;;;;;;;3.10;1.50;;;;;;;23.97;42.43;98620.38;5036213;28;20115;-59
2022/08/05 02:09:07;;;;;;;2.28;1.77;;;;;;;23.88;42.90;98614.34;5037714;28;20452;-59
2022/08/05 02:12:05;;;;;;;1.92;1.52;;;;;;;23.91;42.86;98621.97;5035546;28;20121;-60
2022/08/05 02:14:59;;;;;;;2.55;1.85;;;;;;;23.80;43.08;98609.97;5042059;28;20358;-59
2022/08/05 02:17:49;;;;;;;4.72;1.73;;;;;;;23.79;43.35;98610.19;5032219;28;20109;-59
2022/08/05 02:20:38;;;;;;;;;;;;;;;23.70;43.39;98610.31;5041720;28;20044;-59
2022/08/05 02:23:31;;;;;;;4.47;1.60;;;;;;;23.65;43.48;98617.28;5034449;28;19932;-59
2022/08/05 02:26:47;;;;;;;3.53;2.13;;;;;;;23.52;44.03;98616.16;5037323;28;20075;-59
2022/08/05 02:29:35;;;;;;;2.83;1.58;;;;;;;23.41;44.53;98612.16;5032003;28;20046;-60
2022/08/05 02:32:21;;;;;;;2.78;1.98;;;;;;;23.41;44.73;98609.50;5035231;28;20079;-59
2022/08/05 02:35:11;;;;;;;2.80;1.70;;;;;;;23.40;44.75;98602.50;5044152;28;20052;-59
2022/08/05 02:37:57;;;;;;;6.57;1.83;;;;;;;23.29;45.57;98613.69;5035064;28;20095;-59
2022/08/05 02:40:43;;;;;;;2.72;2.03;;;;;;;23.29;45.62;98608.34;5038018;28;20045;-59
2022/08/05 02:43:30;;;;;;;2.17;1.83;;;;;;;23.28;45.91;98606.69;5042180;28;20388;-59
2022/08/05 02:46:17;;;;;;;2.72;1.63;;;;;;;23.22;46.01;98601.09;5044810;28;20049;-59
2022/08/05 02:49:03;;;;;;;3.63;2.03;;;;;;;23.11;46.08;98596.28;5069318;28;20045;-59
2022/08/05 02:51:49;;;;;;;6.32;2.10;;;;;;;23.12;46.12;98597.91;5033393;28;20057;-59
2022/08/05 02:54:35;;;;;;;3.65;2.10;;;;;;;23.02;46.31;98598.25;5031642;28;20044;-59
2022/08/05 02:57:22;;;;;;;3.42;1.88;;;;;;;23.00;46.54;98598.44;5031675;28;20524;-59
2022/08/05 03:00:08;;;;;;;2.50;1.67;;;;;;;22.93;46.78;98597.53;5032437;28;20037;-59
2022/08/05 03:02:56;;;;;;;3.47;1.73;;;;;;;22.89;47.00;98604.28;5047386;28;20469;-59
2022/08/05 03:05:42;;;;;;;2.85;2.00;;;;;;;22.88;47.23;98599.97;5033157;28;20434;-61
2022/08/05 03:08:27;;;;;;;2.80;2.10;;;;;;;22.82;47.40;98598.84;5040300;28;20116;-59
2022/08/05 03:11:19;;;;;;;2.90;2.13;;;;;;;22.73;47.75;98597.31;5041448;28;20055;-58
2022/08/05 03:14:04;;;;;;;3.22;2.00;;;;;;;22.73;48.01;98597.31;5043382;28;20061;-58
2022/08/05 03:16:49;;;;;;;2.95;2.15;;;;;;;22.60;48.32;98598.00;5061297;28;20048;-59
2022/08/05 03:19:34;;;;;;;2.95;2.20;;;;;;;22.58;48.42;98598.16;5031151;28;20426;-59
2022/08/05 03:22:20;;;;;;;3.60;2.17;;;;;;;22.66;48.36;98596.41;5043673;28;20056;-60
2022/08/05 03:25:05;;;;;;;3.03;1.77;;;;;;;22.60;48.74;98598.00;5043676;28;20039;-58
2022/08/05 03:27:50;;;;;;;3.60;2.08;;;;;;;22.53;48.77;98595.22;5047945;28;20053;-58
2022/08/05 03:30:36;;;;;;;2.50;1.95;;;;;;;22.56;48.53;98596.69;5039039;28;20049;-59
2022/08/05 03:33:21;;;;;;;2.67;1.95;;;;;;;22.68;48.41;98589.88;5032375;28;20053;-59
2022/08/05 03:36:09;;;;;;;2.85;2.08;;;;;;;22.54;48.68;98588.06;5061081;28;20049;-59
2022/08/05 03:38:54;;;;;;;2.40;2.03;;;;;;;22.55;48.79;98587.03;5030823;28;20061;-58
2022/08/05 03:41:39;;;;;;;3.22;1.90;;;;;;;22.52;49.12;98590.91;5030405;28;20494;-59
2022/08/05 03:44:24;;;;;;;4.05;2.20;;;;;;;22.45;49.45;98590.84;5031679;28;20053;-59
2022/08/05 03:47:10;;;;;;;3.20;2.40;;;;;;;22.51;49.44;98590.09;5039050;28;20037;-59
2022/08/05 03:49:56;;;;;;;2.63;2.10;;;;;;;22.55;49.22;98589.69;5030769;28;20045;-58
2022/08/05 03:53:03;;;;;;;3.03;2.08;;;;;;;22.50;49.60;98591.09;5036559;28;20041;-58
2022/08/05 03:56:09;;;;;;;3.55;2.20;;;;;;;22.52;49.53;98589.06;5039717;28;20092;-60
2022/08/05 03:58:58;;;;;;;3.72;2.20;;;;;;;22.55;49.31;98592.38;5031240;28;20041;-59
2022/08/05 04:01:46;;;;;;;2.60;1.90;;;;;;;22.51;49.62;98586.56;5031335;28;20065;-61
2022/08/05 04:04:31;;;;;;;3.83;2.35;;;;;;;22.50;49.91;98587.59;5037936;28;20380;-58
2022/08/05 04:07:16;;;;;;;3.30;2.38;;;;;;;22.46;49.76;98594.31;5031984;28;20038;-59
2022/08/05 04:10:02;;;;;;;2.42;1.63;;;;;;;22.44;50.20;98591.81;5043523;28;20053;-59
2022/08/05 04:12:47;;;;;;;3.65;2.20;;;;;;;22.47;49.78;98595.97;5031628;28;20050;-60
2022/08/05 04:15:31;;;;;;;3.35;2.17;;;;;;;22.54;49.91;98588.88;5034081;28;20060;-60
2022/08/05 04:18:16;;;;;;;3.53;2.28;;;;;;;22.68;49.28;98591.72;5059738;28;20029;-58
2022/08/05 04:21:02;;;;;;;2.60;2.00;;;;;;;22.51;49.63;98597.25;5038959;28;20037;-59
2022/08/05 04:23:48;;;;;;;3.78;2.03;;;;;;;22.56;49.67;98589.50;5031371;28;20037;-60
2022/08/05 04:26:33;;;;;;;2.55;2.22;;;;;;;22.58;49.73;98587.50;5049868;28;20542;-58
2022/08/05 04:29:19;;;;;;;2.65;1.92;;;;;;;22.80;49.19;98592.06;5037749;28;20071;-59
2022/08/05 04:32:06;;;;;;;2.92;2.28;;;;;;;22.77;49.09;98594.09;5031756;28;20503;-59
2022/08/05 04:34:51;;;;;;;3.30;1.83;;;;;;;22.93;49.04;98594.84;5030520;28;20041;-59
2022/08/05 04:37:36;;;;;;;3.47;2.03;;;;;;;22.83;49.29;98592.50;5039601;28;20041;-62
2022/08/05 04:40:20;;;;;;;4.30;2.20;;;;;;;22.76;49.68;98587.09;5040872;28;20040;-62
2022/08/05 04:43:05;;;;;;;3.15;2.08;;;;;;;22.76;49.66;98587.09;5058861;28;20168;-63
2022/08/05 04:45:52;;;;;;;3.28;2.50;;;;;;;22.91;49.64;98588.91;5018807;28;20103;-62
2022/08/05 04:48:36;;;;;;;4.97;1.92;;;;;;;22.88;49.37;98592.75;5035458;28;20040;-62
2022/08/05 04:51:21;;;;;;;3.22;2.28;;;;;;;23.06;49.11;98586.13;5034444;28;20151;-63
2022/08/05 04:54:05;;;;;;;3.13;2.00;;;;;;;23.12;49.01;98588.06;5029779;28;20037;-62
2022/08/05 04:56:50;;;;;;;3.22;2.20;;;;;;;23.16;49.13;98579.66;5039071;28;20050;-62
2022/08/05 04:59:35;;;;;;;2.65;1.95;;;;;;;23.16;49.05;98585.00;5029676;28;20082;-63
2022/08/05 05:02:20;;;;;;;3.08;2.17;;;;;;;23.24;48.93;98583.00;5030054;28;20038;-62
2022/08/05 05:05:05;;;;;;;5.00;2.17;;;;;;;23.22;48.82;98576.22;5031078;28;20072;-61
2022/08/05 05:07:51;;;;;;;4.72;2.50;;;;;;;23.11;49.16;98588.25;5035088;28;20041;-63
2022/08/05 05:10:43;;;;;;;3.78;2.45;;;;;;;23.28;48.63;98574.63;5043870;28;20046;-62
2022/08/05 05:13:28;;;;;;;2.90;2.30;;;;;;;23.45;48.09;98577.88;5029959;28;20179;-62
2022/08/05 05:16:13;;;;;;;3.28;2.30;;;;;;;23.45;48.16;98577.88;5033912;28;20076;-61
2022/08/05 05:18:58;;;;;;;5.72;2.45;;;;;;;23.56;47.96;98587.19;5030043;28;20362;-62
2022/08/05 05:21:42;;;;;;;4.95;2.17;;;;;;;23.55;48.21;98583.69;5033726;28;20041;-62
2022/08/05 05:24:27;;;;;;;4.25;2.60;;;;;;;23.53;48.13;98571.56;5038123;28;20473;-62
2022/08/05 05:27:12;;;;;;;3.45;2.05;;;;;;;23.75;47.91;98577.66;5031364;28;20115;-61
2022/08/05 05:29:57;;;;;;;2.40;1.83;;;;;;;23.84;47.62;98591.72;5029999;28;20042;-61
2022/08/05 05:32:41;;;;;;;3.15;2.38;;;;;;;23.93;47.19;98579.00;5031126;28;20107;-62
2022/08/05 05:35:30;;;;;;;4.25;2.53;;;;;;;23.97;47.07;98583.78;5034400;28;20065;-62
2022/08/05 05:38:16;;;;;;;3.13;2.30;;;;;;;24.03;46.94;98579.47;5034140;28;20033;-62
2022/08/05 05:41:00;;;;;;;2.50;1.80;;;;;;;24.22;46.67;98577.94;5034223;28;20049;-62
2022/08/05 05:43:45;;;;;;;3.72;1.73;;;;;;;24.26;46.48;98578.38;5033966;28;20053;-61
2022/08/05 05:46:30;;;;;;;10.65;2.35;;;;;;;24.30;46.27;98576.13;5033084;28;20043;-63
2022/08/05 05:49:15;;;;;;;4.47;2.47;;;;;;;24.22;46.40;98579.81;5019003;28;20057;-62
2022/08/05 05:52:00;;;;;;;2.60;1.98;;;;;;;24.33;46.59;98575.72;5034190;28;20436;-62
2022/08/05 05:54:45;;;;;;;3.22;2.10;;;;;;;24.37;46.16;98574.28;5032905;28;20380;-62
2022/08/05 05:57:30;;;;;;;4.50;2.15;;;;;;;24.36;46.15;98578.00;5033834;28;20056;-61
2022/08/05 06:00:19;;;;;;;4.03;2.15;;;;;;;24.37;45.87;98582.31;5042936;28;20037;-61
2022/08/05 06:03:04;;;;;;;5.13;2.13;;;;;;;24.50;45.79;98583.41;5039078;28;20048;-62
2022/08/05 06:05:49;;;;;;;6.03;3.22;;;;;;;24.60;45.65;98586.50;5038555;28;20042;-63
2022/08/05 06:08:34;;;;;;;5.38;3.20;;;;;;;24.80;45.45;98588.41;5037266;28;20052;-63
2022/08/05 06:11:18;;;;;;;2.97;2.17;;;;;;;24.93;45.10;98593.84;5033802;28;20087;-63
2022/08/05 06:14:03;;;;;;;3.58;2.42;;;;;;;24.85;45.11;98592.16;5033603;28;20429;-63
2022/08/05 06:16:48;;;;;;;2.05;1.80;;;;;;;24.81;44.89;98596.25;5031879;28;20518;-63
2022/08/05 06:19:32;;;;;;;3.65;2.70;;;;;;;25.05;44.79;98599.41;5032487;28;20531;-63
2022/08/05 06:22:29;;;;;;;4.00;2.50;;;;;;;25.37;43.95;98597.97;5033679;28;20037;-62
2022/08/05 06:25:14;;;;;;;4.07;2.38;;;;;;;25.59;43.44;98596.72;5032276;28;20045;-61
2022/08/05 06:27:58;;;;;;;4.40;2.55;;;;;;;25.67;43.21;98592.22;5032328;28;20054;-63
2022/08/05 06:30:43;;;;;;;2.88;2.53;;;;;;;25.85;43.10;98596.94;5032514;28;20041;-63
2022/08/05 06:33:28;;;;;;;2.65;2.20;;;;;;;26.05;42.60;98590.69;5033126;28;20037;-63
2022/08/05 06:36:13;;;;;;;5.10;2.47;;;;;;;26.08;42.41;98603.69;5033315;28;20038;-63
2022/08/05 06:38:58;;;;;;;4.22;2.38;;;;;;;26.24;42.30;98598.88;5019436;28;20095;-61
2022/08/05 06:41:43;;;;;;;4.90;2.50;;;;;;;26.28;42.19;98598.25;5032857;28;20071;-61
2022/08/05 06:44:30;;;;;;;3.15;2.15;;;;;;;26.58;41.81;98599.59;5035130;28;20045;-62
2022/08/05 06:47:15;;;;;;;4.43;1.95;;;;;;;26.87;41.39;98596.53;5026205;28;20056;-63
2022/08/05 06:50:00;;;;;;;3.88;2.22;;;;;;;27.03;41.26;98597.91;5044962;28;20348;-61
2022/08/05 06:52:44;;;;;;;3.47;2.28;;;;;;;27.05;41.04;98610.09;5032607;28;20396;-61
2022/08/05 06:55:29;;;;;;;2.78;2.10;;;;;;;27.37;40.34;98611.91;5045945;28;20049;-62
2022/08/05 06:58:14;;;;;;;6.43;2.17;;;;;;;27.57;39.87;98604.75;5038247;28;20061;-62
2022/08/05 07:01:00;;;;;;;2.78;2.38;;;;;;;27.76;39.22;98608.31;5036282;28;20155;-62
2022/08/05 07:03:45;;;;;;;4.57;2.33;;;;;;;28.28;38.72;98601.75;5064664;28;20042;-62
2022/08/05 07:06:30;;;;;;;5.22;3.13;;;;;;;27.91;39.23;98603.38;5032411;28;20041;-63
2022/08/05 07:09:15;;;;;;;5.28;2.85;;;;;;;27.57;39.74;98602.84;5038509;28;20043;-64
2022/08/05 07:11:59;;;;;;;3.58;2.40;;;;;;;27.82;39.41;98607.41;5044485;28;20149;-62
2022/08/05 07:17:47;;;;;;;6.00;3.35;;;;;;;27.73;39.49;98608.75;5054498;28;20121;-62
2022/08/05 07:20:32;;;;;;;4.43;2.67;;;;;;;27.85;39.36;98604.28;5051967;28;20036;-62
2022/08/05 07:23:16;;;;;;;3.85;2.60;;;;;;;27.97;39.11;98601.69;5032614;28;20033;-63
2022/08/05 07:26:01;;;;;;;3.67;2.58;;;;;;;28.26;38.34;98603.81;5036573;28;20036;-62
2022/08/05 07:28:46;;;;;;;4.55;2.30;;;;;;;28.47;37.74;98590.97;5025723;28;20053;-62
2022/08/05 07:31:31;;;;;;;4.57;2.38;;;;;;;28.58;37.26;98597.47;5032147;28;20034;-62
2022/08/05 07:34:17;;;;;;;6.50;2.47;;;;;;;28.71;37.26;98613.44;5021576;28;20033;-62
2022/08/05 07:37:02;;;;;;;2.63;2.30;;;;;;;28.88;37.21;98604.69;5030849;28;20084;-63
2022/08/05 07:39:47;;;;;;;3.97;2.67;;;;;;;29.62;36.05;98608.16;5031937;28;20041;-62
2022/08/05 07:42:31;;;;;;;3.83;2.28;;;;;;;29.01;36.80;98609.09;5044628;28;20042;-62
2022/08/05 07:45:17;;;;;;;3.10;2.33;;;;;;;28.87;37.02;98605.78;5032101;28;20128;-63
2022/08/05 07:48:03;;;;;;;4.85;2.28;;;;;;;29.45;36.20;98611.53;5059867;28;20057;-63
2022/08/05 07:50:47;;;;;;;6.57;2.17;;;;;;;29.62;35.55;98605.47;5040031;28;20038;-62
2022/08/05 07:53:32;;;;;;;7.25;2.35;;;;;;;30.51;34.13;98608.13;5045017;28;20208;-62
2022/08/05 07:56:17;;;;;;;3.50;2.05;;;;;;;30.63;34.06;98609.97;5031521;28;20045;-63
2022/08/05 07:59:02;;;;;;;3.85;2.55;;;;;;;31.61;33.03;98605.41;5058254;28;20461;-63
2022/08/05 08:01:47;;;;;;;3.47;1.80;;;;;;;31.08;32.74;98609.19;5031460;28;20477;-63
2022/08/05 08:04:32;;;;;;;3.15;2.05;;;;;;;31.29;31.82;98601.38;5029635;28;20037;-63
2022/08/05 08:07:17;;;;;;;2.35;1.52;;;;;;;31.00;32.62;98596.06;5030812;28;20358;-62
2022/08/05 08:10:03;;;;;;;2.40;1.80;;;;;;;30.88;32.40;98596.13;5042119;28;20114;-63
2022/08/05 08:12:49;;;;;;;2.53;1.92;;;;;;;30.92;32.95;98594.56;5030332;28;20046;-63
2022/08/05 08:15:35;;;;;;;3.97;2.13;;;;;;;31.06;32.54;98595.06;5031307;28;20111;-63
2022/08/05 08:18:19;;;;;;;2.70;1.95;;;;;;;31.54;32.34;98599.34;5030598;28;20033;-62
2022/08/05 08:21:04;;;;;;;3.05;2.10;;;;;;;31.01;32.90;98596.88;5042069;28;20064;-64
2022/08/05 08:23:49;;;;;;;2.75;2.05;;;;;;;31.02;33.40;98591.22;5031330;28;20558;-63
2022/08/05 08:26:35;;;;;;;6.47;2.00;;;;;;;31.73;31.98;98597.19;5034314;28;20059;-63
2022/08/05 08:29:19;;;;;;;3.38;1.90;;;;;;;31.30;32.93;98592.22;5037889;28;20042;-63
2022/08/05 08:32:04;;;;;;;3.30;1.70;;;;;;;32.26;31.71;98590.56;5040590;28;20033;-63
2022/08/05 08:34:49;;;;;;;5.25;2.30;;;;;;;32.19;31.40;98594.28;5042975;28;20034;-62
2022/08/05 08:37:33;;;;;;;2.97;1.92;;;;;;;32.70;30.49;98595.13;5029332;28;20072;-64
2022/08/05 08:40:18;;;;;;;4.28;2.03;;;;;;;33.32;30.02;98592.16;5029886;28;20049;-63
2022/08/05 08:43:04;;;;;;;2.78;1.75;;;;;;;33.18;29.69;98586.38;5030259;28;20044;-63
2022/08/05 08:45:51;;;;;;;3.35;1.70;;;;;;;32.82;29.87;98605.81;5033300;28;20037;-64
2022/08/05 08:48:41;;;;;;;5.10;1.90;;;;;;;32.46;30.52;98598.13;5043536;28;20116;-64
2022/08/05 08:51:30;;;;;;;2.90;1.63;;;;;;;33.14;29.65;98596.91;5038503;28;20044;-63
2022/08/05 08:54:15;;;;;;;6.82;1.98;;;;;;;32.99;30.08;98591.31;5033387;28;20045;-64
2022/08/05 08:57:00;;;;;;;6.43;1.60;;;;;;;34.13;29.33;98597.50;5030951;28;20045;-63
2022/08/05 08:59:46;;;;;;;2.75;1.88;;;;;;;33.73;29.33;98601.66;5030943;28;20038;-64
2022/08/05 09:02:32;;;;;;;3.00;1.80;;;;;;;34.66;28.25;98595.78;5031169;28;20038;-63
2022/08/05 09:05:16;;;;;;;5.25;2.15;;;;;;;34.19;28.57;98598.38;5043239;28;20057;-64
2022/08/05 09:08:01;;;;;;;4.65;1.80;;;;;;;33.65;30.58;98587.53;5041069;28;20133;-63
2022/08/05 09:10:47;;;;;;;3.88;1.83;;;;;;;34.64;28.48;98589.78;5046429;28;20033;-64
2022/08/05 09:13:33;;;;;;;3.25;1.85;;;;;;;35.11;27.97;98577.06;5047830;28;20560;-64
2022/08/05 09:16:18;;;;;;;4.55;1.60;;;;;;;34.30;28.66;98588.34;5047059;28;20044;-64
2022/08/05 09:19:03;;;;;;;4.93;2.20;;;;;;;34.09;29.54;98587.44;5033580;28;20369;-63
2022/08/05 09:21:48;;;;;;;3.80;2.17;;;;;;;34.16;28.66;98575.25;5033129;28;20065;-64
2022/08/05 09:24:36;;;;;;;2.80;1.75;;;;;;;35.40;26.86;98575.69;5061119;28;20049;-64
2022/08/05 09:27:36;;;;;;;2.40;1.60;;;;;;;35.01;27.63;98575.16;5034541;28;20037;-64
2022/08/05 09:30:21;;;;;;;2.95;1.48;;;;;;;36.12;27.27;98579.31;5033274;28;20090;-64
2022/08/05 09:33:06;;;;;;;2.92;1.50;;;;;;;35.77;27.64;98570.19;5047320;28;20037;-64
2022/08/05 09:36:02;;;;;;;5.20;1.73;;;;;;;35.46;27.00;98573.78;5034346;28;20075;-64
2022/08/05 09:38:56;;;;;;;3.17;1.70;;;;;;;35.08;27.45;98565.91;5042520;28;20033;-64
2022/08/05 09:41:59;;;;;;;3.80;1.95;;;;;;;35.71;27.45;98577.53;5033020;28;20045;-64
2022/08/05 09:44:48;;;;;;;2.55;1.85;;;;;;;35.81;27.46;98574.00;5037679;28;20091;-64
2022/08/05 09:47:32;;;;;;;3.15;1.55;;;;;;;36.53;27.25;98572.03;5042724;28;20041;-65
2022/08/05 09:50:19;;;;;;;2.03;1.48;;;;;;;36.63;26.13;98569.22;5052471;28;20381;-64
2022/08/05 09:53:03;;;;;;;4.28;1.60;;;;;;;36.97;25.99;98578.53;5050594;28;20426;-64
2022/08/05 09:55:57;;;;;;;2.55;1.48;;;;;;;37.27;25.77;98567.66;5029776;28;20041;-63
2022/08/05 09:58:55;;;;;;;4.05;1.50;;;;;;;36.95;26.28;98572.56;5036691;28;20036;-63
2022/08/05 10:01:45;;;;;;;2.75;1.25;;;;;;;37.39;25.55;98564.53;5035292;28;20051;-63
2022/08/05 10:04:38;;;;;;;2.33;1.63;;;;;;;37.17;25.72;98565.78;5033631;28;20047;-63
2022/08/05 10:07:22;;;;;;;2.20;1.40;;;;;;;37.38;25.33;98558.25;5024081;28;20037;-63
2022/08/05 10:10:07;;;;;;;3.75;1.92;;;;;;;36.68;25.77;98560.16;5045545;28;20069;-63
2022/08/05 10:12:55;;;;;;;6.43;1.60;;;;;;;36.98;25.96;98558.34;5033679;28;20495;-63
2022/08/05 10:15:40;;;;;;;1.70;1.55;;;;;;;37.23;25.43;98551.03;5033012;28;20107;-63
2022/08/05 10:18:26;;;;;;;1.75;1.52;;;;;;;37.89;25.76;98558.81;5033045;28;20057;-63
2022/08/05 10:21:10;;;;;;;2.55;1.50;;;;;;;38.14;24.42;98556.84;5033265;28;20042;-63
2022/08/05 10:23:56;;;;;;;2.00;1.50;;;;;;;38.89;24.24;98550.84;5033310;28;20049;-63
2022/08/05 10:26:42;;;;;;;3.13;1.60;;;;;;;38.94;23.65;98545.25;5033350;28;20033;-62
2022/08/05 10:29:31;;;;;;;2.60;1.33;;;;;;;38.16;25.09;98548.34;5033834;28;20041;-63
2022/08/05 10:32:16;;;;;;;3.13;1.63;;;;;;;38.77;24.50;98540.38;5042635;28;20050;-62
2022/08/05 10:35:02;;;;;;;1.95;1.48;;;;;;;38.91;24.17;98545.88;5033387;28;20156;-62
2022/08/05 10:37:48;;;;;;;2.60;1.30;;;;;;;38.96;24.08;98536.75;5032578;28;20435;-62
2022/08/05 10:40:37;;;;;;;2.67;1.27;;;;;;;39.92;24.54;98539.06;5072539;28;20072;-63
2022/08/05 10:43:52;;;;;;;3.50;1.40;;;;;;;39.23;24.76;98540.69;5034874;28;20037;-63
2022/08/05 10:46:53;;;;;;;2.95;2.05;;;;;;;39.61;23.65;98538.91;5032460;28;20107;-63
2022/08/05 10:50:10;;;;;;;3.38;1.50;;;;;;;39.76;22.77;98529.56;5047069;28;20492;-62
2022/08/05 10:52:58;;;;;;;4.43;1.88;;;;;;;39.08;24.12;98519.84;5036473;28;20473;-62
2022/08/05 10:56:08;;;;;;;1.70;1.20;;;;;;;39.22;23.58;98519.88;5058793;28;20065;-62
2022/08/05 10:58:53;;;;;;;2.13;1.30;;;;;;;40.15;23.08;98532.88;5031532;28;20049;-63
2022/08/05 11:01:40;;;;;;;1.77;1.38;;;;;;;40.42;23.52;98528.41;5039804;28;20118;-63
2022/08/05 11:04:26;;;;;;;2.17;1.40;;;;;;;41.17;22.14;98521.63;5049005;28;20072;-62
2022/08/05 11:07:15;;;;;;;3.78;1.60;;;;;;;39.31;23.87;98525.50;5035844;28;20429;-60
2022/08/05 11:10:03;;;;;;;2.80;1.10;;;;;;;40.07;23.13;98520.69;5044266;28;20037;-60
2022/08/05 11:12:48;;;;;;;2.33;1.10;;;;;;;40.41;22.67;98518.56;5032700;28;20060;-60
2022/08/05 11:15:39;;;;;;;2.22;1.08;;;;;;;41.52;20.50;98515.50;5039258;28;20045;-61
2022/08/05 11:18:34;;;;;;;3.60;1.00;;;;;;;42.48;20.14;98518.69;5032489;28;20457;-61
2022/08/05 11:21:31;;;;;;;1.67;1.10;;;;;;;41.22;20.34;98520.69;5034383;28;20037;-60
2022/08/05 11:24:15;;;;;;;3.35;0.98;;;;;;;41.88;20.88;98515.59;5061218;28;20037;-61
2022/08/05 11:27:29;;;;;;;1.15;0.80;;;;;;;41.71;19.81;98517.97;5032072;28;20026;-60
2022/08/05 11:30:14;;;;;;;1.80;1.15;;;;;;;41.82;20.24;98526.69;5032046;28;20033;-60
2022/08/05 11:33:31;;;;;;;2.05;0.93;;;;;;;41.26;20.21;98519.72;5035033;28;20427;-61
2022/08/05 11:36:18;;;;;;;1.48;1.00;;;;;;;41.30;21.02;98521.84;5034981;28;20045;-61
2022/08/05 11:39:04;;;;;;;4.97;1.20;;;;;;;42.65;20.28;98520.59;5041317;28;20036;-60
2022/08/05 11:41:51;;;;;;;1.10;0.90;;;;;;;42.64;19.08;98516.22;5031893;28;20037;-61
2022/08/05 11:44:38;;;;;;;1.80;1.00;;;;;;;41.86;20.23;98507.66;5030693;28;20127;-61
2022/08/05 11:47:23;;;;;;;2.08;0.98;;;;;;;42.03;20.46;98512.34;5033947;28;20147;-60
2022/08/05 11:50:08;;;;;;;1.77;0.90;;;;;;;41.61;20.11;98508.09;5046218;28;20037;-60
2022/08/05 11:52:53;;;;;;;1.77;0.85;;;;;;;41.38;20.32;98510.91;5045304;28;20041;-62
2022/08/05 11:55:52;;;;;;;2.83;0.90;;;;;;;42.98;19.13;98505.47;5031643;28;20388;-61
2022/08/05 11:58:39;;;;;;;2.53;1.00;;;;;;;42.70;19.53;98508.66;5030482;28;20104;-61
2022/08/05 12:01:24;;;;;;;2.40;0.98;;;;;;;42.79;19.42;98516.88;5031551;28;20408;-61
2022/08/05 12:04:08;;;;;;;0.95;0.70;;;;;;;43.73;18.22;98499.81;5036587;28;20453;-60
2022/08/05 12:06:58;;;;;;;2.97;1.10;;;;;;;44.29;18.37;98499.56;5040438;28;20044;-60
2022/08/05 12:09:53;;;;;;;1.95;1.20;;;;;;;43.84;17.92;98501.03;5040584;28;20045;-60
2022/08/05 12:12:38;;;;;;;1.17;1.08;;;;;;;43.29;18.90;98507.16;5031602;28;20432;-60
2022/08/05 12:15:23;;;;;;;1.38;1.08;;;;;;;41.19;21.00;98508.41;5031541;28;20033;-60
2022/08/05 12:18:08;;;;;;;1.13;0.90;;;;;;;40.94;21.17;98496.13;5030243;28;20064;-59
2022/08/05 12:20:53;;;;;;;1.40;0.90;;;;;;;41.14;21.53;98503.06;5040294;28;20037;-61
2022/08/05 12:23:38;;;;;;;1.13;0.80;;;;;;;42.15;19.97;98502.66;5045127;28;20389;-60
2022/08/05 12:26:22;;;;;;;2.08;1.00;;;;;;;43.57;18.71;98492.13;5030513;28;20080;-60
2022/08/05 12:29:17;;;;;;;1.30;0.80;;;;;;;42.50;19.08;98499.91;5039513;28;20068;-60
2022/08/05 12:32:04;;;;;;;2.67;0.88;;;;;;;42.96;20.49;98489.28;5045299;28;20480;-60
2022/08/05 12:34:50;;;;;;;1.70;0.93;;;;;;;43.15;19.06;98499.13;5044346;28;20037;-60
2022/08/05 12:37:36;;;;;;;2.13;1.00;;;;;;;43.78;18.75;98489.38;5033668;28;20042;-60
2022/08/05 12:40:24;;;;;;;2.55;0.90;;;;;;;43.86;17.58;98489.69;5030221;28;20087;-60
2022/08/05 12:43:08;;;;;;;1.13;0.88;;;;;;;42.57;19.46;98486.47;5043286;28;20149;-60
2022/08/05 12:45:54;;;;;;;1.10;0.88;;;;;;;41.95;20.27;98486.47;5054847;28;20072;-62
2022/08/05 12:48:39;;;;;;;2.10;1.20;;;;;;;41.51;20.33;98486.38;5041643;28;20065;-60
2022/08/05 12:51:24;;;;;;;1.55;1.20;;;;;;;41.65;19.81;98482.72;5038142;28;20142;-61
2022/08/05 12:54:08;;;;;;;0.95;0.80;;;;;;;42.21;19.56;98484.88;5035459;28;20543;-60
2022/08/05 12:56:58;;;;;;;1.30;0.70;;;;;;;42.67;18.78;98492.75;5034161;28;20065;-60
2022/08/05 12:59:49;;;;;;;1.75;1.10;;;;;;;41.82;20.50;98482.72;5034882;28;20113;-61
2022/08/05 13:02:35;;;;;;;2.10;1.00;;;;;;;42.07;19.96;98482.28;5035021;28;20396;-61
2022/08/05 13:05:19;;;;;;;1.70;0.90;;;;;;;42.68;19.44;98475.91;5030441;28;20072;-60
2022/08/05 13:08:04;;;;;;;2.88;1.00;;;;;;;41.74;19.32;98478.84;5067369;28;20076;-60
2022/08/05 13:10:49;;;;;;;1.83;1.08;;;;;;;41.38;20.01;98469.69;5073777;28;20136;-61